createdAt,value
2022-11-22T00:00:20.520Z,99264.44
2022-11-22T00:02:47.612Z,99269.25
2022-11-22T00:05:14.209Z,99268.41
2022-11-22T00:07:41.028Z,99269.34
2022-11-22T00:10:09.677Z,99266.31
2022-11-22T00:12:36.713Z,99262.97
2022-11-22T00:15:04.291Z,99267.13
2022-11-22T00:17:34.701Z,99279.78
2022-11-22T00:20:01.452Z,99274.47
2022-11-22T00:22:28.040Z,99275.56
2022-11-22T00:24:54.629Z,99275.22
2022-11-22T00:27:21.213Z,99274.19
2022-11-22T00:29:47.819Z,99284.38
2022-11-22T00:32:14.836Z,99287.81
2022-11-22T00:34:41.554Z,99283.72
2022-11-22T00:37:08.255Z,99275.81
2022-11-22T00:39:35.261Z,99264.59
2022-11-22T00:42:01.969Z,99269.97
2022-11-22T00:44:28.604Z,99264.75
2022-11-22T00:46:55.242Z,99269.28
2022-11-22T00:49:21.820Z,99254.78
2022-11-22T00:51:48.448Z,99255.06
2022-11-22T00:54:15.120Z,99260.50
2022-11-22T00:56:41.786Z,99260.53
2022-11-22T00:59:08.386Z,99259.78
2022-11-22T01:01:35.076Z,99261.03
2022-11-22T01:04:01.692Z,99264.59
2022-11-22T01:06:28.289Z,99269.75
2022-11-22T01:08:54.984Z,99266.63
2022-11-22T01:11:21.665Z,99267.44
2022-11-22T01:13:48.269Z,99268.16
2022-11-22T01:16:16.701Z,99271.53
2022-11-22T01:18:43.566Z,99274.91
2022-11-22T01:21:10.349Z,99270.56
2022-11-22T01:23:37.856Z,99260.81
2022-11-22T01:26:07.268Z,99261.63
2022-11-22T01:28:33.836Z,99252.28
2022-11-22T01:31:00.497Z,99243.84
2022-11-22T01:33:28.464Z,99244.50
2022-11-22T01:35:55.051Z,99240.78
2022-11-22T01:38:21.624Z,99249.72
2022-11-22T01:40:48.194Z,99246.09
2022-11-22T01:43:27.385Z,99247.06
2022-11-22T01:45:59.036Z,99244.81
2022-11-22T01:48:35.714Z,99242.69
2022-11-22T01:51:17.274Z,99244.88
2022-11-22T01:53:44.652Z,99253.03
2022-11-22T01:56:14.982Z,99249.94
2022-11-22T01:58:45.085Z,99246.13
2022-11-22T02:01:11.724Z,99248.69
2022-11-22T02:03:42.181Z,99250.19
2022-11-22T02:06:08.777Z,99249.41
2022-11-22T02:08:45.305Z,99246.81
2022-11-22T02:11:12.707Z,99244.91
2022-11-22T02:13:41.849Z,99237.19
2022-11-22T02:16:09.749Z,99226.91
2022-11-22T02:18:37.733Z,99230.44
2022-11-22T02:21:06.179Z,99234.72
2022-11-22T02:23:43.441Z,99232.53
2022-11-22T02:26:10.110Z,99229.84
2022-11-22T02:28:39.627Z,99222.88
2022-11-22T02:31:06.528Z,99227.38
2022-11-22T02:33:33.274Z,99225.41
2022-11-22T02:36:01.062Z,99228.75
2022-11-22T02:38:32.994Z,99220.84
2022-11-22T02:41:09.137Z,99216.28
2022-11-22T02:43:40.027Z,99225.88
2022-11-22T02:46:11.994Z,99215.09
2022-11-22T02:48:43.091Z,99218.06
2022-11-22T02:51:10.315Z,99214.44
2022-11-22T02:53:37.011Z,99216.84
2022-11-22T02:56:03.662Z,99224.13
2022-11-22T02:58:30.200Z,99218.22
2022-11-22T03:00:56.822Z,99223.44
2022-11-22T03:03:23.442Z,99217.09
2022-11-22T03:05:50.006Z,99216.28
2022-11-22T03:08:16.606Z,99222.91
2022-11-22T03:10:43.214Z,99219.38
2022-11-22T03:13:09.801Z,99216.09
2022-11-22T03:15:36.444Z,99221.84
2022-11-22T03:18:04.516Z,99219.31
2022-11-22T03:20:33.188Z,99221.06
2022-11-22T03:23:01.014Z,99224.75
2022-11-22T03:25:27.723Z,99211.56
2022-11-22T03:27:54.471Z,99210.88
2022-11-22T03:30:21.051Z,99210.06
2022-11-22T03:32:47.659Z,99218.97
2022-11-22T03:35:14.297Z,99222.69
2022-11-22T03:37:40.875Z,99215.63
2022-11-22T03:40:08.342Z,99203.63
2022-11-22T03:42:34.950Z,99207.06
2022-11-22T03:45:01.524Z,99208.69
2022-11-22T03:47:28.108Z,99206.25
2022-11-22T03:49:54.680Z,99215.25
2022-11-22T03:52:21.297Z,99203.03
2022-11-22T03:54:47.869Z,99208.03
2022-11-22T03:57:14.476Z,99197.81
2022-11-22T03:59:41.158Z,99209.00
2022-11-22T04:02:07.828Z,99208.16
2022-11-22T04:04:34.442Z,99200.50
2022-11-22T04:07:01.075Z,99206.59
2022-11-22T04:09:27.904Z,99206.69
2022-11-22T04:11:54.729Z,99211.88
2022-11-22T04:14:21.325Z,99205.78
2022-11-22T04:16:47.949Z,99210.16
2022-11-22T04:19:14.698Z,99205.00
2022-11-22T04:21:41.278Z,99202.06
2022-11-22T04:24:10.610Z,99193.69
2022-11-22T04:26:37.356Z,99204.09
2022-11-22T04:29:09.716Z,99196.25
2022-11-22T04:31:36.536Z,99197.50
2022-11-22T04:34:03.141Z,99199.06
2022-11-22T04:36:29.791Z,99195.59
2022-11-22T04:38:56.357Z,99193.81
2022-11-22T04:41:22.937Z,99184.59
2022-11-22T04:43:49.518Z,99178.50
2022-11-22T04:46:16.273Z,99182.72
2022-11-22T04:48:42.975Z,99189.81
2022-11-22T04:51:14.270Z,99185.44
2022-11-22T04:53:40.891Z,99187.88
2022-11-22T04:56:07.656Z,99181.06
2022-11-22T04:58:34.241Z,99186.38
2022-11-22T05:01:00.929Z,99177.81
2022-11-22T05:03:27.593Z,99175.31
2022-11-22T05:05:54.484Z,99177.91
2022-11-22T05:08:21.170Z,99185.66
2022-11-22T05:10:49.010Z,99194.28
2022-11-22T05:13:16.102Z,99201.16
2022-11-22T05:15:42.779Z,99198.59
2022-11-22T05:18:09.400Z,99206.28
2022-11-22T05:20:36.140Z,99200.31
2022-11-22T05:23:02.850Z,99198.53
2022-11-22T05:25:29.481Z,99199.44
2022-11-22T05:27:56.068Z,99209.72
2022-11-22T05:30:22.717Z,99200.25
2022-11-22T05:32:49.351Z,99201.09
2022-11-22T05:35:16.045Z,99201.97
2022-11-22T05:37:42.671Z,99205.50
2022-11-22T05:40:10.117Z,99208.16
2022-11-22T05:42:36.762Z,99222.69
2022-11-22T05:45:03.596Z,99207.13
2022-11-22T05:47:34.877Z,99216.88
2022-11-22T05:50:01.814Z,99202.13
2022-11-22T05:52:28.401Z,99203.88
2022-11-22T05:54:54.999Z,99190.03
2022-11-22T05:57:21.581Z,99189.19
2022-11-22T05:59:48.276Z,99205.44
2022-11-22T06:02:14.906Z,99216.75
2022-11-22T06:04:41.560Z,99211.59
2022-11-22T06:07:10.220Z,99209.00
2022-11-22T06:09:37.600Z,99215.84
2022-11-22T06:12:04.304Z,99221.16
2022-11-22T06:14:30.886Z,99234.91
2022-11-22T06:16:57.483Z,99241.81
2022-11-22T06:19:24.088Z,99231.31
2022-11-22T06:21:50.691Z,99231.47
2022-11-22T06:24:17.284Z,99240.94
2022-11-22T06:26:43.975Z,99237.50
2022-11-22T06:29:10.641Z,99240.91
2022-11-22T06:31:37.250Z,99239.16
2022-11-22T06:34:04.035Z,99246.00
2022-11-22T06:36:33.145Z,99244.34
2022-11-22T06:39:00.473Z,99239.16
2022-11-22T06:41:31.576Z,99227.03
2022-11-22T06:43:58.173Z,99220.97
2022-11-22T06:46:26.910Z,99221.94
2022-11-22T06:48:53.600Z,99226.22
2022-11-22T06:51:28.586Z,99232.16
2022-11-22T06:53:56.374Z,99238.31
2022-11-22T06:56:26.026Z,99229.59
2022-11-22T06:58:53.825Z,99229.59
2022-11-22T07:01:26.071Z,99220.13
2022-11-22T07:03:53.657Z,99215.81
2022-11-22T07:06:20.244Z,99217.47
2022-11-22T07:08:47.039Z,99215.75
2022-11-22T07:11:16.633Z,99225.25
2022-11-22T07:13:44.320Z,99227.94
2022-11-22T07:16:13.408Z,99229.66
2022-11-22T07:18:40.658Z,99232.97
2022-11-22T07:21:14.408Z,99227.88
2022-11-22T07:23:42.960Z,99226.97
2022-11-22T07:26:09.911Z,99220.91
2022-11-22T07:28:37.569Z,99229.56
2022-11-22T07:31:06.567Z,99226.94
2022-11-22T07:33:34.541Z,99234.81
2022-11-22T07:36:09.722Z,99234.72
2022-11-22T07:38:36.990Z,99239.06
2022-11-22T07:41:04.512Z,99250.16
2022-11-22T07:43:31.310Z,99253.63
2022-11-22T07:46:07.216Z,99251.00
2022-11-22T07:48:34.440Z,99245.84
2022-11-22T07:51:05.855Z,99239.63
2022-11-22T07:53:33.001Z,99246.72
2022-11-22T07:56:06.778Z,99239.75
2022-11-22T07:58:34.745Z,99231.97
2022-11-22T08:01:12.306Z,99234.41
2022-11-22T08:03:39.338Z,99220.63
2022-11-22T08:06:08.876Z,99221.59
2022-11-22T08:08:36.647Z,99229.25
2022-11-22T08:11:04.275Z,99230.94
2022-11-22T08:13:32.041Z,99230.91
2022-11-22T08:16:11.270Z,99234.44
2022-11-22T08:18:38.804Z,99224.81
2022-11-22T08:21:07.917Z,99224.00
2022-11-22T08:23:35.721Z,99221.19
2022-11-22T08:26:02.907Z,99210.00
2022-11-22T08:28:29.541Z,99211.06
2022-11-22T08:31:03.600Z,99200.63
2022-11-22T08:33:30.325Z,99205.88
2022-11-22T08:35:56.908Z,99217.94
2022-11-22T08:38:23.609Z,99220.34
2022-11-22T08:40:50.183Z,99219.56
2022-11-22T08:43:17.119Z,99217.75
2022-11-22T08:45:43.735Z,99221.03
2022-11-22T08:48:10.301Z,99226.25
2022-11-22T08:50:36.892Z,99219.22
2022-11-22T08:53:03.486Z,99207.88
2022-11-22T08:55:30.120Z,99211.16
2022-11-22T08:58:00.467Z,99207.00
2022-11-22T09:00:32.898Z,99209.50
2022-11-22T09:03:00.089Z,99205.81
2022-11-22T09:05:26.821Z,99198.97
2022-11-22T09:10:40.217Z,99206.69
2022-11-22T09:13:06.807Z,99201.31
2022-11-22T09:15:33.528Z,99198.81
2022-11-22T09:18:01.620Z,99204.84
2022-11-22T09:20:28.479Z,99205.50
2022-11-22T09:22:55.226Z,99206.22
2022-11-22T09:25:21.821Z,99196.13
2022-11-22T09:27:48.423Z,99193.22
2022-11-22T09:30:15.473Z,99188.09
2022-11-22T09:32:43.861Z,99182.56
2022-11-22T09:35:10.480Z,99182.56
2022-11-22T09:37:37.074Z,99187.38
2022-11-22T09:40:03.916Z,99182.94
2022-11-22T09:43:01.289Z,99170.63
2022-11-22T09:45:46.579Z,99167.72
2022-11-22T09:48:54.650Z,99149.19
2022-11-22T09:51:27.860Z,99150.38
2022-11-22T09:54:02.578Z,99144.69
2022-11-22T09:56:29.972Z,99138.56
2022-11-22T09:59:06.511Z,99133.94
2022-11-22T10:01:51.676Z,99136.19
2022-11-22T10:04:52.420Z,99139.28
2022-11-22T10:07:25.324Z,99142.22
2022-11-22T10:10:02.901Z,99130.63
2022-11-22T10:12:39.327Z,99124.53
2022-11-22T10:15:34.090Z,99132.00
2022-11-22T10:18:05.657Z,99121.53
2022-11-22T10:20:44.380Z,99127.91
2022-11-22T10:23:34.495Z,99125.50
2022-11-22T10:26:27.698Z,99126.72
2022-11-22T10:29:15.681Z,99129.81
2022-11-22T10:32:00.855Z,99125.28
2022-11-22T10:34:59.825Z,99127.59
2022-11-22T10:37:41.484Z,99122.19
2022-11-22T10:40:22.959Z,99122.84
2022-11-22T10:43:23.923Z,99113.34
2022-11-22T10:46:10.123Z,99108.19
2022-11-22T10:48:48.822Z,99111.75
2022-11-22T10:51:46.440Z,99108.81
2022-11-22T10:54:43.758Z,99098.72
2022-11-22T10:57:33.731Z,99096.22
2022-11-22T11:00:09.563Z,99087.88
2022-11-22T11:03:11.647Z,99079.81
2022-11-22T11:06:15.183Z,99072.56
2022-11-22T11:09:12.142Z,99076.38
2022-11-22T11:11:28.946Z,99063.25
2022-11-22T11:14:08.521Z,99046.91
2022-11-22T11:16:37.565Z,99046.88
2022-11-22T11:19:21.965Z,99045.84
2022-11-22T11:22:08.761Z,99040.41
2022-11-22T11:24:40.096Z,99037.84
2022-11-22T11:27:09.560Z,99023.75
2022-11-22T11:29:55.789Z,99018.47
2022-11-22T11:32:22.445Z,99015.78
2022-11-22T11:34:57.667Z,99014.66
2022-11-22T11:37:36.466Z,99003.28
2022-11-22T11:40:22.587Z,99005.88
2022-11-22T11:42:49.213Z,98997.84
2022-11-22T11:45:27.324Z,98984.91
2022-11-22T11:47:53.959Z,98984.13
2022-11-22T11:50:24.680Z,98980.25
2022-11-22T11:52:57.885Z,98985.78
2022-11-22T11:55:25.252Z,98981.16
2022-11-22T11:57:53.635Z,98977.25
2022-11-22T12:00:26.568Z,98977.56
2022-11-22T12:02:59.966Z,98975.00
2022-11-22T12:05:29.537Z,98976.56
2022-11-22T12:07:56.216Z,98968.91
2022-11-22T12:10:31.789Z,98975.91
2022-11-22T12:13:24.526Z,98967.38
2022-11-22T12:16:18.533Z,98958.03
2022-11-22T12:19:03.004Z,98950.31
2022-11-22T12:21:43.114Z,98946.06
2022-11-22T12:24:48.439Z,98947.34
2022-11-22T12:26:58.681Z,98935.16
2022-11-22T12:29:25.266Z,98941.84
2022-11-22T12:32:05.356Z,98941.22
2022-11-22T12:34:36.895Z,98938.59
2022-11-22T12:37:38.849Z,98937.88
2022-11-22T12:40:15.008Z,98930.19
2022-11-22T12:42:43.867Z,98927.81
2022-11-22T12:45:42.866Z,98939.88
2022-11-22T12:48:34.810Z,98933.59
2022-11-22T12:51:07.886Z,98929.00
2022-11-22T12:53:39.046Z,98934.28
2022-11-22T12:56:32.761Z,98922.44
2022-11-22T12:59:17.634Z,98931.00
2022-11-22T13:01:51.529Z,98925.09
2022-11-22T13:04:49.604Z,98916.16
2022-11-22T13:07:33.096Z,98915.50
2022-11-22T13:10:12.199Z,98910.28
2022-11-22T13:12:40.582Z,98902.94
2022-11-22T13:15:13.261Z,98909.25
2022-11-22T13:17:40.474Z,98908.66
2022-11-22T13:20:17.247Z,98913.69
2022-11-22T13:23:09.757Z,98919.50
2022-11-22T13:25:56.951Z,98923.63
2022-11-22T13:28:28.987Z,98920.44
2022-11-22T13:31:10.545Z,98926.34
2022-11-22T13:33:42.919Z,98924.78
2022-11-22T13:36:27.591Z,98925.69
2022-11-22T13:38:56.807Z,98924.91
2022-11-22T13:41:28.429Z,98922.97
2022-11-22T13:43:57.963Z,98913.47
2022-11-22T13:46:46.445Z,98914.69
2022-11-22T13:49:16.351Z,98911.28
2022-11-22T13:51:52.898Z,98906.91
2022-11-22T13:54:37.793Z,98908.47
2022-11-22T13:57:32.415Z,98906.19
2022-11-22T14:00:14.131Z,98910.50
2022-11-22T14:02:53.361Z,98905.66
2022-11-22T14:05:34.369Z,98915.94
2022-11-22T14:08:05.993Z,98899.97
2022-11-22T14:10:35.161Z,98905.00
2022-11-22T14:13:29.329Z,98899.03
2022-11-22T14:16:08.191Z,98905.72
2022-11-22T14:18:58.670Z,98914.44
2022-11-22T14:22:12.873Z,98905.88
2022-11-22T14:25:17.881Z,98906.09
2022-11-22T14:28:22.512Z,98895.72
2022-11-22T14:30:51.708Z,98898.66
2022-11-22T14:33:20.911Z,98899.41
2022-11-22T14:36:06.161Z,98907.56
2022-11-22T14:38:40.449Z,98893.13
2022-11-22T14:41:28.428Z,98891.81
2022-11-22T14:44:02.507Z,98897.50
2022-11-22T14:46:52.679Z,98900.50
2022-11-22T14:49:46.706Z,98895.84
2022-11-22T14:52:25.840Z,98896.13
2022-11-22T14:54:57.501Z,98902.59
2022-11-22T14:57:27.199Z,98906.78
2022-11-22T15:00:22.702Z,98896.75
2022-11-22T15:03:24.252Z,98895.78
2022-11-22T15:09:20.995Z,98897.22
2022-11-22T15:09:46.577Z,98890.06
2022-11-22T15:12:39.072Z,98896.47
2022-11-22T15:59:44.594Z,98895.13
2022-11-22T16:02:15.123Z,98890.81
2022-11-22T16:04:49.235Z,98883.94
2022-11-22T16:07:35.782Z,98886.31
2022-11-22T16:10:19.994Z,98890.53
2022-11-22T16:12:47.056Z,98891.38
2022-11-22T16:15:27.338Z,98882.69
2022-11-22T16:18:06.651Z,98878.94
2022-11-22T16:20:34.790Z,98878.72
2022-11-22T16:23:10.296Z,98878.03
2022-11-22T16:25:42.123Z,98876.50
2022-11-22T16:28:32.032Z,98876.63
2022-11-22T16:31:02.102Z,98871.84
2022-11-22T16:33:28.835Z,98869.06
2022-11-22T16:36:00.529Z,98872.88
2022-11-22T16:38:28.290Z,98854.53
2022-11-22T16:40:58.019Z,98859.09
2022-11-22T16:43:26.524Z,98856.69
2022-11-22T16:45:53.835Z,98848.25
2022-11-22T16:48:32.962Z,98857.34
2022-11-22T16:51:05.875Z,98846.81
2022-11-22T16:53:47.260Z,98849.19
2022-11-22T16:56:16.885Z,98849.25
2022-11-22T16:58:43.628Z,98842.13
2022-11-22T17:01:15.463Z,98841.00
2022-11-22T17:03:43.451Z,98852.66
2022-11-22T17:06:19.289Z,98852.13
2022-11-22T17:08:47.025Z,98845.78
2022-11-22T17:11:16.453Z,98844.63
2022-11-22T17:13:43.142Z,98850.00
2022-11-22T17:16:11.254Z,98834.00
2022-11-22T17:18:38.784Z,98832.22
2022-11-22T17:21:15.303Z,98835.84
2022-11-22T17:23:42.024Z,98834.06
2022-11-22T17:26:10.527Z,98830.41
2022-11-22T17:28:37.112Z,98821.09
2022-11-22T17:31:05.900Z,98827.50
2022-11-22T17:33:32.503Z,98828.38
2022-11-22T17:35:59.077Z,98830.63
2022-11-22T17:38:25.685Z,98832.69
2022-11-22T17:40:58.976Z,98834.16
2022-11-22T17:43:25.563Z,98822.84
2022-11-22T17:45:52.160Z,98831.72
2022-11-22T17:48:18.830Z,98839.47
2022-11-22T17:50:45.417Z,98831.94
2022-11-22T17:53:12.189Z,98832.91
2022-11-22T17:56:08.584Z,98821.31
2022-11-22T17:58:25.358Z,98827.19
2022-11-22T18:00:51.988Z,98828.69
2022-11-22T18:03:18.836Z,98821.41
2022-11-22T18:05:45.581Z,98826.25
2022-11-22T18:08:12.159Z,98830.56
2022-11-22T18:10:38.762Z,98823.81
2022-11-22T18:13:20.836Z,98821.03
2022-11-22T18:15:52.692Z,98820.13
2022-11-22T18:18:48.533Z,98820.59
2022-11-22T18:21:06.519Z,98820.88
2022-11-22T18:23:35.217Z,98808.25
2022-11-22T18:26:37.655Z,98810.06
2022-11-22T18:29:24.585Z,98805.97
2022-11-22T18:31:51.761Z,98802.06
2022-11-22T18:34:19.132Z,98799.44
2022-11-22T18:37:02.928Z,98796.16
2022-11-22T18:39:38.889Z,98795.66
2022-11-22T18:42:12.643Z,98787.81
2022-11-22T18:44:39.361Z,98792.78
2022-11-22T18:47:05.939Z,98788.75
2022-11-22T18:49:33.193Z,98782.81
2022-11-22T18:52:00.384Z,98784.66
2022-11-22T18:54:26.992Z,98775.84
2022-11-22T18:56:53.831Z,98770.72
2022-11-22T18:59:20.415Z,98760.88
2022-11-22T19:01:47.079Z,98764.53
2022-11-22T19:04:14.617Z,98740.94
2022-11-22T19:06:41.781Z,98741.06
2022-11-22T19:09:09.239Z,98745.13
2022-11-22T19:11:35.875Z,98739.38
2022-11-22T19:14:02.685Z,98750.72
2022-11-22T19:16:29.334Z,98756.47
2022-11-22T19:18:56.944Z,98743.63
2022-11-22T19:21:25.483Z,98748.75
2022-11-22T19:23:52.132Z,98746.91
2022-11-22T19:26:21.157Z,98745.75
2022-11-22T19:28:48.963Z,98746.13
2022-11-22T19:31:20.652Z,98736.63
2022-11-22T19:33:47.826Z,98740.41
2022-11-22T19:36:26.411Z,98725.75
2022-11-22T19:38:57.475Z,98724.53
2022-11-22T19:41:25.053Z,98710.59
2022-11-22T19:43:51.949Z,98718.31
2022-11-22T19:46:18.890Z,98716.59
2022-11-22T19:48:47.391Z,98719.31
2022-11-22T19:51:15.428Z,98719.94
2022-11-22T19:53:42.642Z,98702.97
2022-11-22T19:56:17.212Z,98712.50
2022-11-22T19:58:49.150Z,98717.72
2022-11-22T20:01:15.980Z,98716.97
2022-11-22T20:03:44.174Z,98713.38
2022-11-22T20:06:12.792Z,98713.53
2022-11-22T20:08:39.867Z,98708.78
2022-11-22T20:11:08.809Z,98708.34
2022-11-22T20:13:45.979Z,98713.09
2022-11-22T20:16:18.184Z,98709.88
2022-11-22T20:18:44.804Z,98713.28
2022-11-22T20:21:11.454Z,98717.53
2022-11-22T20:23:38.404Z,98724.00
2022-11-22T20:26:10.362Z,98724.25
2022-11-22T20:28:37.690Z,98717.25
2022-11-22T20:31:17.021Z,98721.00
2022-11-22T20:33:46.673Z,98723.34
2022-11-22T20:36:16.089Z,98715.25
2022-11-22T20:38:44.290Z,98725.97
2022-11-22T20:41:12.360Z,98716.66
2022-11-22T20:43:39.228Z,98716.78
2022-11-22T20:46:17.800Z,98720.91
2022-11-22T20:49:08.641Z,98719.75
2022-11-22T20:51:35.270Z,98719.38
2022-11-22T20:54:02.065Z,98729.78
2022-11-22T20:56:28.639Z,98717.66
2022-11-22T20:58:55.251Z,98724.34
2022-11-22T21:01:24.784Z,98722.47
2022-11-22T21:03:52.856Z,98720.13
2022-11-22T21:06:21.433Z,98712.91
2022-11-22T21:08:48.690Z,98707.34
2022-11-22T21:11:23.755Z,98705.63
2022-11-22T21:13:50.625Z,98709.88
2022-11-22T21:16:25.607Z,98710.19
2022-11-22T21:19:00.258Z,98721.44
2022-11-22T21:21:27.987Z,98722.03
2022-11-22T21:24:00.814Z,98724.72
2022-11-22T21:26:28.171Z,98723.00
2022-11-22T21:28:55.350Z,98715.72
2022-11-22T21:31:22.989Z,98721.34
2022-11-22T21:33:50.065Z,98717.88
2022-11-22T21:36:16.711Z,98715.47
2022-11-22T21:38:43.337Z,98723.59
2022-11-22T21:41:39.453Z,98723.72
2022-11-22T21:44:03.789Z,98714.84
2022-11-22T21:46:30.457Z,98706.06
2022-11-22T21:48:57.040Z,98707.38
2022-11-22T21:51:23.641Z,98706.19
2022-11-22T21:53:50.290Z,98708.56
2022-11-22T21:56:16.903Z,98708.41
2022-11-22T21:58:43.674Z,98711.31
2022-11-22T22:01:13.999Z,98708.09
2022-11-22T22:03:41.057Z,98708.69
2022-11-22T22:06:07.867Z,98704.34
2022-11-22T22:08:34.796Z,98699.91
2022-11-22T22:11:01.458Z,98707.63
2022-11-22T22:13:28.194Z,98709.19
2022-11-22T22:15:56.595Z,98700.59
2022-11-22T22:18:23.314Z,98707.47
2022-11-22T22:20:58.962Z,98717.03
2022-11-22T22:23:25.573Z,98706.47
2022-11-22T22:25:57.076Z,98703.72
2022-11-22T22:28:23.664Z,98710.75
2022-11-22T22:30:50.301Z,98714.38
2022-11-22T22:33:16.885Z,98706.59
2022-11-22T22:35:43.484Z,98707.16
2022-11-22T22:38:10.088Z,98698.59
2022-11-22T22:40:36.671Z,98701.97
2022-11-22T22:43:03.270Z,98703.41
2022-11-22T22:45:29.863Z,98697.50
2022-11-22T22:47:56.435Z,98699.84
2022-11-22T22:50:23.019Z,98702.13
2022-11-22T22:52:49.602Z,98707.22
2022-11-22T22:55:16.260Z,98705.38
2022-11-22T22:57:42.836Z,98703.72
2022-11-22T23:00:09.983Z,98697.63
2022-11-22T23:02:36.598Z,98707.78
2022-11-22T23:05:03.393Z,98703.28
2022-11-22T23:07:30.118Z,98700.63
2022-11-22T23:09:56.772Z,98695.13
2022-11-22T23:12:23.346Z,98702.41
2022-11-22T23:14:49.964Z,98699.28
2022-11-22T23:17:16.561Z,98694.84
2022-11-22T23:19:43.172Z,98689.44
2022-11-22T23:22:09.808Z,98695.19
2022-11-22T23:24:36.410Z,98703.47
2022-11-22T23:27:02.976Z,98701.03
2022-11-22T23:29:29.920Z,98696.47
2022-11-22T23:31:56.711Z,98693.88
2022-11-22T23:34:23.297Z,98699.97
2022-11-22T23:36:49.981Z,98695.81
2022-11-22T23:39:16.552Z,98690.34
2022-11-22T23:41:43.388Z,98689.38
2022-11-22T23:44:09.966Z,98682.47
2022-11-22T23:46:36.599Z,98682.59
2022-11-22T23:49:04.669Z,98676.84
2022-11-22T23:51:32.921Z,98682.94
2022-11-22T23:54:05.318Z,98685.94
2022-11-22T23:56:33.074Z,98679.78
2022-11-22T23:59:00.322Z,98669.91
